createdAt,value
2023-05-19T00:01:05.417Z,1.00
2023-05-19T00:03:40.299Z,1.00
2023-05-19T00:06:09.550Z,0.90
2023-05-19T00:08:39.251Z,1.20
2023-05-19T00:11:08.081Z,1.02
2023-05-19T00:13:37.259Z,0.88
2023-05-19T00:16:05.991Z,1.23
2023-05-19T00:18:35.759Z,1.10
2023-05-19T00:21:03.848Z,1.27
2023-05-19T00:23:32.270Z,0.95
2023-05-19T00:26:00.420Z,1.02
2023-05-19T00:28:28.751Z,1.00
2023-05-19T00:30:57.017Z,1.33
2023-05-19T00:33:25.556Z,1.50
2023-05-19T00:35:54.985Z,1.35
2023-05-19T00:38:23.399Z,1.50
2023-05-19T00:40:51.501Z,1.27
2023-05-19T00:43:19.813Z,0.90
2023-05-19T00:45:48.045Z,0.80
2023-05-19T00:48:16.503Z,1.10
2023-05-19T00:50:44.765Z,1.30
2023-05-19T00:53:14.782Z,1.10
2023-05-19T00:55:43.694Z,1.20
2023-05-19T00:58:13.792Z,1.00
2023-05-19T01:00:42.649Z,1.40
2023-05-19T01:03:12.165Z,1.00
2023-05-19T01:05:44.667Z,1.05
2023-05-19T01:08:14.622Z,1.17
2023-05-19T01:10:42.789Z,1.40
2023-05-19T01:13:11.808Z,1.02
2023-05-19T01:15:48.633Z,1.13
2023-05-19T01:18:22.772Z,0.80
2023-05-19T01:20:57.946Z,1.33
2023-05-19T01:23:36.495Z,1.07
2023-05-19T01:26:32.834Z,1.15
2023-05-19T01:29:09.243Z,1.10
2023-05-19T01:31:40.031Z,1.20
2023-05-19T01:34:08.815Z,1.08
2023-05-19T01:36:37.207Z,1.17
2023-05-19T01:39:05.661Z,1.13
2023-05-19T01:41:34.745Z,1.27
2023-05-19T01:44:03.408Z,1.10
2023-05-19T01:46:31.525Z,1.10
2023-05-19T01:49:01.218Z,1.10
2023-05-19T01:51:29.335Z,1.30
2023-05-19T01:53:57.617Z,0.90
2023-05-19T01:56:33.973Z,1.20
2023-05-19T01:59:12.033Z,1.00
2023-05-19T02:01:47.637Z,1.00
2023-05-19T02:04:23.708Z,1.10
2023-05-19T02:07:02.178Z,0.93
2023-05-19T02:09:43.351Z,0.82
2023-05-19T02:12:18.105Z,1.40
2023-05-19T02:14:49.003Z,1.00
2023-05-19T02:17:19.483Z,1.23
2023-05-19T02:19:49.262Z,1.27
2023-05-19T02:22:17.338Z,0.95
2023-05-19T02:24:46.736Z,1.10
2023-05-19T02:27:14.739Z,1.13
2023-05-19T02:29:44.539Z,1.30
2023-05-19T02:32:12.749Z,1.17
2023-05-19T02:34:42.138Z,1.00
2023-05-19T02:37:12.450Z,1.08
2023-05-19T02:39:40.743Z,1.03
2023-05-19T02:42:09.214Z,1.00
2023-05-19T02:44:37.592Z,1.08
2023-05-19T02:47:05.942Z,1.08
2023-05-19T02:49:36.017Z,0.85
2023-05-19T02:52:04.403Z,1.13
2023-05-19T02:54:35.328Z,1.20
2023-05-19T02:57:03.596Z,0.90
2023-05-19T02:59:32.257Z,0.95
2023-05-19T03:02:01.450Z,1.00
2023-05-19T03:04:30.491Z,1.13
2023-05-19T03:06:58.602Z,1.05
2023-05-19T03:09:27.052Z,1.10
2023-05-19T03:11:56.452Z,1.13
2023-05-19T03:14:24.810Z,1.05
2023-05-19T03:16:53.308Z,0.90
2023-05-19T03:19:21.800Z,0.90
2023-05-19T03:21:49.909Z,0.85
2023-05-19T03:24:18.288Z,0.82
2023-05-19T03:26:47.701Z,1.17
2023-05-19T03:29:17.628Z,1.00
2023-05-19T03:31:46.651Z,0.95
2023-05-19T03:34:16.699Z,1.15
2023-05-19T03:36:45.078Z,1.10
2023-05-19T03:39:17.147Z,1.40
2023-05-19T03:41:46.684Z,0.90
2023-05-19T03:44:14.961Z,1.23
2023-05-19T03:46:44.504Z,1.08
2023-05-19T03:49:44.759Z,1.23
2023-05-19T03:52:31.535Z,1.00
2023-05-19T03:55:21.361Z,1.03
2023-05-19T03:57:49.625Z,1.10
2023-05-19T04:00:18.612Z,1.30
2023-05-19T04:02:48.054Z,1.05
2023-05-19T04:05:16.874Z,1.48
2023-05-19T04:07:46.607Z,1.30
2023-05-19T04:10:15.075Z,0.65
2023-05-19T04:12:43.120Z,1.17
2023-05-19T04:15:12.547Z,1.40
2023-05-19T04:17:41.880Z,1.00
2023-05-19T04:20:13.564Z,1.70
2023-05-19T04:22:41.676Z,1.38
2023-05-19T04:25:10.302Z,1.10
2023-05-19T04:27:39.531Z,0.98
2023-05-19T04:30:09.382Z,1.10
2023-05-19T04:32:39.653Z,1.20
2023-05-19T04:35:08.728Z,0.77
2023-05-19T04:37:39.076Z,1.10
2023-05-19T04:40:11.066Z,1.20
2023-05-19T04:42:41.503Z,0.90
2023-05-19T04:45:12.367Z,1.17
2023-05-19T04:47:43.040Z,1.35
2023-05-19T04:50:12.869Z,1.70
2023-05-19T04:52:42.581Z,1.42
2023-05-19T04:55:13.067Z,1.35
2023-05-19T04:57:41.816Z,0.90
2023-05-19T05:00:13.708Z,1.17
2023-05-19T05:03:08.285Z,0.90
2023-05-19T05:05:36.825Z,1.17
2023-05-19T05:08:07.071Z,1.20
2023-05-19T05:10:39.731Z,1.70
2023-05-19T05:13:10.507Z,1.48
2023-05-19T05:15:44.109Z,1.00
2023-05-19T05:18:13.040Z,1.52
2023-05-19T05:20:42.520Z,1.20
2023-05-19T05:23:14.513Z,1.30
2023-05-19T05:25:45.779Z,1.25
2023-05-19T05:28:15.609Z,1.23
2023-05-19T05:30:44.904Z,1.00
2023-05-19T05:33:15.057Z,1.30
2023-05-19T05:35:43.539Z,0.93
2023-05-19T05:38:14.989Z,1.15
2023-05-19T05:40:43.895Z,1.10
2023-05-19T05:43:11.997Z,1.27
2023-05-19T05:45:47.067Z,1.00
2023-05-19T05:48:16.042Z,1.20
2023-05-19T05:50:45.407Z,1.58
2023-05-19T05:53:19.708Z,1.00
2023-05-19T05:55:51.124Z,1.10
2023-05-19T05:58:21.210Z,0.98
2023-05-19T06:00:51.451Z,1.60
2023-05-19T06:03:21.979Z,1.10
2023-05-19T06:05:50.674Z,1.25
2023-05-19T06:08:20.821Z,1.02
2023-05-19T06:10:49.141Z,1.38
2023-05-19T06:13:22.518Z,1.33
2023-05-19T06:15:51.944Z,1.13
2023-05-19T06:18:31.800Z,1.13
2023-05-19T06:21:00.521Z,1.05
2023-05-19T06:23:31.551Z,0.93
2023-05-19T06:26:00.805Z,1.27
2023-05-19T06:28:28.870Z,1.48
2023-05-19T06:30:57.559Z,1.20
2023-05-19T06:33:44.116Z,1.30
2023-05-19T06:36:12.432Z,1.40
2023-05-19T06:38:44.437Z,1.30
2023-05-19T06:41:13.648Z,1.42
2023-05-19T06:43:43.241Z,1.35
2023-05-19T06:46:17.646Z,1.30
2023-05-19T06:48:46.151Z,1.00
2023-05-19T06:51:15.628Z,1.17
2023-05-19T06:53:45.984Z,1.38
2023-05-19T06:56:14.955Z,1.00
2023-05-19T06:58:43.611Z,1.23
2023-05-19T07:01:12.760Z,1.02
2023-05-19T07:03:46.703Z,1.17
2023-05-19T07:06:16.160Z,0.93
2023-05-19T07:08:45.920Z,1.20
2023-05-19T07:11:14.535Z,0.90
2023-05-19T07:13:43.525Z,0.70
2023-05-19T07:16:12.427Z,1.10
2023-05-19T07:18:40.989Z,1.05
2023-05-19T07:21:09.332Z,0.90
2023-05-19T07:23:39.619Z,1.27
2023-05-19T07:26:09.569Z,0.90
2023-05-19T07:28:39.876Z,1.20
2023-05-19T07:31:10.159Z,1.40
2023-05-19T07:33:38.183Z,1.13
2023-05-19T07:36:06.651Z,1.20
2023-05-19T07:38:35.698Z,1.15
2023-05-19T07:41:04.803Z,1.10
2023-05-19T07:43:34.213Z,1.40
2023-05-19T07:46:02.559Z,1.08
2023-05-19T07:48:30.633Z,1.05
2023-05-19T07:50:58.873Z,0.98
2023-05-19T07:53:27.920Z,1.10
2023-05-19T07:55:58.404Z,1.35
2023-05-19T07:58:27.945Z,1.15
2023-05-19T08:00:59.374Z,1.10
2023-05-19T08:03:27.629Z,1.00
2023-05-19T08:05:56.322Z,1.30
2023-05-19T08:08:24.491Z,0.90
2023-05-19T08:10:52.765Z,0.90
2023-05-19T08:13:20.895Z,0.90
2023-05-19T08:15:49.212Z,0.90
2023-05-19T08:18:18.581Z,1.10
2023-05-19T08:20:46.982Z,1.10
2023-05-19T08:23:14.986Z,0.90
2023-05-19T08:25:43.404Z,1.00
2023-05-19T08:28:11.552Z,1.45
2023-05-19T08:30:39.922Z,1.03
2023-05-19T08:33:08.329Z,0.95
2023-05-19T08:35:38.005Z,1.02
2023-05-19T08:38:06.263Z,0.98
2023-05-19T08:40:34.850Z,1.15
2023-05-19T08:43:03.126Z,0.70
2023-05-19T08:45:31.791Z,0.95
2023-05-19T08:48:00.264Z,0.82
2023-05-19T08:50:32.066Z,1.02
2023-05-19T08:53:05.689Z,0.80
2023-05-19T08:55:36.380Z,0.90
2023-05-19T08:58:05.424Z,1.00
2023-05-19T09:00:34.107Z,0.90
2023-05-19T09:03:17.587Z,0.82
2023-05-19T09:05:47.016Z,0.68
2023-05-19T09:08:16.498Z,0.90
2023-05-19T09:10:44.988Z,0.77
2023-05-19T09:13:13.084Z,1.20
2023-05-19T09:15:43.425Z,1.15
2023-05-19T09:18:12.752Z,1.08
2023-05-19T09:20:42.483Z,1.00
2023-05-19T09:23:14.786Z,0.95
2023-05-19T09:25:51.361Z,0.90
2023-05-19T09:28:27.177Z,1.15
2023-05-19T09:31:02.401Z,1.10
2023-05-19T09:33:31.395Z,1.00
2023-05-19T09:35:59.759Z,1.58
2023-05-19T09:38:29.326Z,0.80
2023-05-19T09:40:59.875Z,0.70
2023-05-19T09:43:28.545Z,0.55
2023-05-19T09:46:00.191Z,1.00
2023-05-19T09:48:28.665Z,0.65
2023-05-19T09:50:57.887Z,0.60
2023-05-19T09:53:26.415Z,1.13
2023-05-19T09:55:57.506Z,1.15
2023-05-19T09:58:27.878Z,0.90
2023-05-19T10:00:56.786Z,0.70
2023-05-19T10:03:26.401Z,0.90
2023-05-19T10:05:54.833Z,0.73
2023-05-19T10:08:24.356Z,0.88
2023-05-19T10:10:52.850Z,0.80
2023-05-19T10:13:22.569Z,0.88
2023-05-19T10:15:58.669Z,0.65
2023-05-19T10:18:29.248Z,0.70
2023-05-19T10:20:58.819Z,0.80
2023-05-19T10:23:27.097Z,1.00
2023-05-19T10:25:57.716Z,1.17
2023-05-19T10:28:28.097Z,0.90
2023-05-19T10:30:59.998Z,0.85
2023-05-19T10:33:33.993Z,1.75
2023-05-19T10:36:17.478Z,0.70
2023-05-19T10:38:50.051Z,0.90
2023-05-19T10:41:32.166Z,0.70
2023-05-19T10:44:06.521Z,0.80
2023-05-19T10:46:36.466Z,0.80
2023-05-19T10:49:04.827Z,0.80
2023-05-19T10:51:33.339Z,1.17
2023-05-19T10:54:02.840Z,0.88
2023-05-19T10:56:33.835Z,1.00
2023-05-19T10:59:02.400Z,0.93
2023-05-19T11:01:33.270Z,0.70
2023-05-19T11:04:07.582Z,1.00
2023-05-19T11:06:37.733Z,0.65
2023-05-19T11:09:13.305Z,0.90
2023-05-19T11:11:47.619Z,0.93
2023-05-19T11:14:16.876Z,0.80
2023-05-19T11:16:48.011Z,1.00
2023-05-19T11:19:21.500Z,1.00
2023-05-19T11:21:52.394Z,0.63
2023-05-19T11:24:37.258Z,0.68
2023-05-19T11:27:20.000Z,0.60
2023-05-19T11:29:48.421Z,0.70
2023-05-19T11:32:16.884Z,0.80
2023-05-19T11:34:46.644Z,0.55
2023-05-19T11:37:14.945Z,0.82
2023-05-19T11:39:43.730Z,0.80
2023-05-19T11:42:12.090Z,0.80
2023-05-19T11:44:41.132Z,0.85
2023-05-19T11:47:10.213Z,0.82
2023-05-19T11:49:38.277Z,1.00
2023-05-19T11:52:08.141Z,0.67
2023-05-19T11:54:37.299Z,0.82
2023-05-19T11:57:06.380Z,0.65
2023-05-19T11:59:36.434Z,4.43
2023-05-19T12:02:17.670Z,9.38
2023-05-19T12:04:45.965Z,8.27
2023-05-19T12:07:18.336Z,4.75
2023-05-19T12:09:47.258Z,1.23
2023-05-19T12:12:17.491Z,0.90
2023-05-19T12:14:47.612Z,0.60
2023-05-19T12:17:17.522Z,1.10
2023-05-19T12:19:47.119Z,1.25
2023-05-19T12:22:18.355Z,1.50
2023-05-19T12:24:47.338Z,0.68
2023-05-19T12:27:19.327Z,1.13
2023-05-19T12:29:50.753Z,0.80
2023-05-19T12:32:19.621Z,0.90
2023-05-19T12:34:47.815Z,1.00
2023-05-19T12:37:17.625Z,0.60
2023-05-19T12:39:45.916Z,0.70
2023-05-19T12:42:14.199Z,0.80
2023-05-19T12:44:46.594Z,1.20
2023-05-19T12:47:16.505Z,0.95
2023-05-19T12:49:57.297Z,0.85
2023-05-19T12:52:27.799Z,0.80
2023-05-19T12:54:59.925Z,1.00
2023-05-19T12:57:29.098Z,0.82
2023-05-19T13:00:01.723Z,0.82
2023-05-19T13:02:31.081Z,0.50
2023-05-19T13:04:59.611Z,0.95
2023-05-19T13:07:29.387Z,0.97
2023-05-19T13:09:57.682Z,0.98
2023-05-19T13:12:26.213Z,1.02
2023-05-19T13:14:55.898Z,0.73
2023-05-19T13:17:24.586Z,0.70
2023-05-19T13:19:52.947Z,0.70
2023-05-19T13:22:21.538Z,0.80
2023-05-19T13:24:53.160Z,0.55
2023-05-19T13:27:22.625Z,0.95
2023-05-19T13:29:50.692Z,0.50
2023-05-19T13:32:19.125Z,0.80
2023-05-19T13:34:47.310Z,1.00
2023-05-19T13:37:15.657Z,0.63
2023-05-19T13:39:43.789Z,0.80
2023-05-19T13:42:13.534Z,1.20
2023-05-19T13:44:41.693Z,0.80
2023-05-19T13:47:10.072Z,0.90
2023-05-19T13:49:38.181Z,0.63
2023-05-19T13:52:07.784Z,0.80
2023-05-19T13:54:35.921Z,0.73
2023-05-19T13:57:04.395Z,1.07
2023-05-19T13:59:35.140Z,0.68
2023-05-19T14:02:06.428Z,0.80
2023-05-19T14:04:37.315Z,0.90
2023-05-19T14:07:06.239Z,0.82
2023-05-19T14:09:34.892Z,0.80
2023-05-19T14:12:03.314Z,0.70
2023-05-19T14:14:31.465Z,1.05
2023-05-19T14:17:01.090Z,0.70
2023-05-19T14:19:30.417Z,0.80
2023-05-19T14:21:58.750Z,1.10
2023-05-19T14:24:26.928Z,0.60
2023-05-19T14:26:55.202Z,0.60
2023-05-19T14:29:23.227Z,1.00
2023-05-19T14:31:51.548Z,0.77
2023-05-19T14:34:21.199Z,1.10
2023-05-19T14:36:49.620Z,0.80
2023-05-19T14:39:17.682Z,0.73
2023-05-19T14:41:46.094Z,0.90
2023-05-19T14:44:14.122Z,0.80
2023-05-19T14:46:42.420Z,0.90
2023-05-19T14:49:10.713Z,1.13
2023-05-19T14:51:40.360Z,1.10
2023-05-19T14:54:08.465Z,1.55
2023-05-19T14:56:36.931Z,0.90
2023-05-19T14:59:05.344Z,0.83
2023-05-19T15:01:33.643Z,0.80
2023-05-19T15:04:01.869Z,0.70
2023-05-19T15:06:30.581Z,1.00
2023-05-19T15:08:59.961Z,0.80
2023-05-19T15:11:28.296Z,1.17
2023-05-19T15:13:56.328Z,0.90
2023-05-19T15:16:24.760Z,0.80
2023-05-19T15:18:53.258Z,1.40
2023-05-19T15:21:21.862Z,0.80
2023-05-19T15:23:49.951Z,0.83
2023-05-19T15:26:19.570Z,1.20
2023-05-19T15:28:50.634Z,1.10
2023-05-19T15:31:18.985Z,0.88
2023-05-19T15:33:47.106Z,1.13
2023-05-19T15:36:16.541Z,0.80
2023-05-19T15:38:44.847Z,0.88
2023-05-19T15:41:13.145Z,1.20
2023-05-19T15:43:42.576Z,1.00
2023-05-19T15:46:13.073Z,0.93
2023-05-19T15:48:41.148Z,1.10
2023-05-19T15:51:09.483Z,1.00
2023-05-19T15:53:37.571Z,0.90
2023-05-19T15:56:06.332Z,0.68
2023-05-19T15:58:34.406Z,0.75
2023-05-19T16:01:04.271Z,0.80
2023-05-19T16:03:32.680Z,0.80
2023-05-19T16:06:01.584Z,0.98
2023-05-19T16:08:29.720Z,0.85
2023-05-19T16:10:58.029Z,1.02
2023-05-19T16:13:26.066Z,0.83
2023-05-19T16:15:54.406Z,0.43
2023-05-19T16:18:23.970Z,0.90
2023-05-19T16:20:52.505Z,0.90
2023-05-19T16:23:20.524Z,1.00
2023-05-19T16:25:49.379Z,0.80
2023-05-19T16:28:17.644Z,0.82
2023-05-19T16:30:46.060Z,0.82
2023-05-19T16:33:14.091Z,1.00
2023-05-19T16:35:43.805Z,1.00
2023-05-19T16:38:11.900Z,0.90
2023-05-19T16:40:40.522Z,0.90
2023-05-19T16:43:08.694Z,0.77
2023-05-19T16:45:37.111Z,1.00
2023-05-19T16:48:05.520Z,0.85
2023-05-19T16:50:34.031Z,1.10
2023-05-19T16:53:03.743Z,1.08
2023-05-19T16:55:32.055Z,0.90
2023-05-19T16:58:00.510Z,0.90
2023-05-19T17:00:29.746Z,0.73
2023-05-19T17:02:57.920Z,0.93
2023-05-19T17:05:27.171Z,7.55
2023-05-19T17:07:55.250Z,10.73
2023-05-19T17:10:24.889Z,3.40
2023-05-19T17:12:53.013Z,8.50
2023-05-19T17:15:21.287Z,15.37
2023-05-19T17:17:49.372Z,3.35
2023-05-19T17:20:17.822Z,1.20
2023-05-19T17:22:45.804Z,1.02
2023-05-19T17:25:14.116Z,1.00
2023-05-19T17:27:43.507Z,1.07
2023-05-19T17:30:12.847Z,1.00
2023-05-19T17:32:41.114Z,1.13
2023-05-19T17:35:09.794Z,1.00
2023-05-19T17:37:37.955Z,0.73
2023-05-19T17:40:07.617Z,0.80
2023-05-19T17:42:35.675Z,0.88
2023-05-19T17:45:07.471Z,1.05
2023-05-19T17:47:35.597Z,1.10
2023-05-19T17:50:04.150Z,1.20
2023-05-19T17:52:33.032Z,0.87
2023-05-19T17:55:01.969Z,1.10
2023-05-19T17:57:32.014Z,1.33
2023-05-19T18:00:01.220Z,1.02
2023-05-19T18:02:31.494Z,1.00
2023-05-19T18:05:01.007Z,1.40
2023-05-19T18:07:29.313Z,1.20
2023-05-19T18:09:57.852Z,0.88
2023-05-19T18:12:26.164Z,0.98
2023-05-19T18:14:54.402Z,0.90
2023-05-19T18:17:22.442Z,1.03
2023-05-19T18:19:52.044Z,1.35
2023-05-19T18:22:20.208Z,1.30
2023-05-19T18:24:48.489Z,1.10
2023-05-19T18:27:16.546Z,1.10
2023-05-19T18:29:44.797Z,1.27
2023-05-19T18:32:14.250Z,1.00
2023-05-19T18:34:42.774Z,0.75
2023-05-19T18:37:12.209Z,1.10
2023-05-19T18:39:40.499Z,1.15
2023-05-19T18:42:08.489Z,0.80
2023-05-19T18:44:36.788Z,1.00
2023-05-19T18:47:05.017Z,1.15
2023-05-19T18:49:33.325Z,1.00
2023-05-19T18:52:01.497Z,0.85
2023-05-19T18:54:32.450Z,1.00
2023-05-19T18:57:01.266Z,1.00
2023-05-19T18:59:29.568Z,0.95
2023-05-19T19:01:57.613Z,0.90
2023-05-19T19:04:26.033Z,1.02
2023-05-19T19:06:54.204Z,0.80
2023-05-19T19:09:22.556Z,1.00
2023-05-19T19:11:51.969Z,1.58
2023-05-19T19:14:20.309Z,0.90
2023-05-19T19:16:48.409Z,1.10
2023-05-19T19:19:16.739Z,0.83
2023-05-19T19:21:44.770Z,0.98
2023-05-19T19:24:13.569Z,0.90
2023-05-19T19:26:41.586Z,1.08
2023-05-19T19:29:11.150Z,0.80
2023-05-19T19:31:39.503Z,1.00
2023-05-19T19:34:09.361Z,1.17
2023-05-19T19:36:37.430Z,1.05
2023-05-19T19:39:05.676Z,1.23
2023-05-19T19:41:33.775Z,1.08
2023-05-19T19:44:02.089Z,1.20
2023-05-19T19:46:31.565Z,1.50
2023-05-19T19:49:00.321Z,1.13
2023-05-19T19:51:28.398Z,1.48
2023-05-19T19:53:56.883Z,1.25
2023-05-19T19:56:26.138Z,0.80
2023-05-19T19:58:56.778Z,1.67
2023-05-19T20:01:27.565Z,1.25
2023-05-19T20:03:57.964Z,1.10
2023-05-19T20:06:26.136Z,1.38
2023-05-19T20:08:54.368Z,1.43
2023-05-19T20:11:24.376Z,1.10
2023-05-19T20:13:53.021Z,1.67
2023-05-19T20:16:21.174Z,1.17
2023-05-19T20:18:49.514Z,1.42
2023-05-19T20:21:18.967Z,1.10
2023-05-19T20:23:47.296Z,1.10
2023-05-19T20:26:15.916Z,1.42
2023-05-19T20:28:44.308Z,1.10
2023-05-19T20:31:12.326Z,1.10
2023-05-19T20:33:40.635Z,1.10
2023-05-19T20:36:08.749Z,1.02
2023-05-19T20:38:38.379Z,1.10
2023-05-19T20:41:06.447Z,1.13
2023-05-19T20:43:35.144Z,1.13
2023-05-19T20:46:03.768Z,1.10
2023-05-19T20:48:32.260Z,1.25
2023-05-19T20:51:00.537Z,0.93
2023-05-19T20:53:28.831Z,0.82
2023-05-19T20:55:58.234Z,1.13
2023-05-19T20:58:30.065Z,1.20
2023-05-19T21:00:58.335Z,0.90
2023-05-19T21:03:27.157Z,1.40
2023-05-19T21:05:55.535Z,1.25
2023-05-19T21:08:24.207Z,1.08
2023-05-19T21:10:52.603Z,1.17
2023-05-19T21:13:22.287Z,1.20
2023-05-19T21:15:50.296Z,1.42
2023-05-19T21:18:18.558Z,1.23
2023-05-19T21:20:46.682Z,1.27
2023-05-19T21:23:14.965Z,0.87
2023-05-19T21:25:45.200Z,1.13
2023-05-19T21:28:13.868Z,1.02
2023-05-19T21:30:44.341Z,1.13
2023-05-19T21:33:12.758Z,1.33
2023-05-19T21:35:40.813Z,1.33
2023-05-19T21:38:22.698Z,1.20
2023-05-19T21:40:52.769Z,1.05
2023-05-19T21:43:21.720Z,1.42
2023-05-19T21:45:51.120Z,1.17
2023-05-19T21:48:19.489Z,1.10
2023-05-19T21:50:47.553Z,0.90
2023-05-19T21:53:15.799Z,0.95
2023-05-19T21:55:44.391Z,1.20
2023-05-19T21:58:12.830Z,1.25
2023-05-19T22:00:40.908Z,1.10
2023-05-19T22:03:10.633Z,1.42
2023-05-19T22:05:39.072Z,0.95
2023-05-19T22:08:07.353Z,1.17
2023-05-19T22:10:37.074Z,1.38
2023-05-19T22:13:05.534Z,1.33
2023-05-19T22:15:33.508Z,1.20
2023-05-19T22:18:01.839Z,0.80
2023-05-19T22:20:31.616Z,0.80
2023-05-19T22:23:01.139Z,1.13
2023-05-19T22:25:29.146Z,1.30
2023-05-19T22:27:57.642Z,1.25
2023-05-19T22:30:25.706Z,1.08
2023-05-19T22:32:54.121Z,0.93
2023-05-19T22:35:22.664Z,0.95
2023-05-19T22:37:52.255Z,1.20
2023-05-19T22:40:20.530Z,1.10
2023-05-19T22:42:48.780Z,1.10
2023-05-19T22:45:16.781Z,1.30
2023-05-19T22:47:45.133Z,1.00
2023-05-19T22:50:13.205Z,1.07
2023-05-19T22:52:41.677Z,0.90
2023-05-19T22:55:11.339Z,0.80
2023-05-19T22:57:39.697Z,1.20
2023-05-19T23:00:09.644Z,1.20
2023-05-19T23:02:37.990Z,1.23
2023-05-19T23:05:06.955Z,1.20
2023-05-19T23:07:35.387Z,1.17
2023-05-19T23:10:05.816Z,0.98
2023-05-19T23:12:35.674Z,1.40
2023-05-19T23:15:03.839Z,1.37
2023-05-19T23:17:32.901Z,1.50
2023-05-19T23:20:00.948Z,1.20
2023-05-19T23:22:29.249Z,1.20
2023-05-19T23:24:57.302Z,1.40
2023-05-19T23:27:25.592Z,1.50
2023-05-19T23:29:55.052Z,1.30
2023-05-19T23:32:23.510Z,1.45
2023-05-19T23:34:51.512Z,1.20
2023-05-19T23:37:19.830Z,1.65
2023-05-19T23:39:47.808Z,1.10
2023-05-19T23:42:16.119Z,1.30
2023-05-19T23:44:44.143Z,1.48
2023-05-19T23:47:13.728Z,1.58
2023-05-19T23:49:41.763Z,1.15
2023-05-19T23:52:10.015Z,1.10
2023-05-19T23:54:38.075Z,1.60
2023-05-19T23:57:06.750Z,1.25
2023-05-19T23:59:34.989Z,1.45
